Time;durP1;ratioP1;P1;durP2;ratioP2;P2;SDS_P1;SDS_P2;PMS_P1;PMS_P2;Temp;Humidity;BMP_temperature;BMP_pressure;BME280_temperature;BME280_humidity;BME280_pressure;Samples;Min_cycle;Max_cycle;Signal;HPM_P1;HPM_P2
2021/06/25 05:08:36;;;;;;;15.55;2.15;;;;;;;21.62;65.81;98118.98;1871673;76;22678;-64
2021/06/25 05:11:16;;;;;;;5.20;1.70;;;;;;;21.56;65.63;98105.45;1784239;80;20912;-65
2021/06/25 05:13:43;;;;;;;6.25;1.80;;;;;;;21.61;65.64;98095.63;1784318;80;21803;-65
2021/06/25 05:16:11;;;;;;;5.72;1.87;;;;;;;21.66;65.59;98088.52;1784122;80;20892;-65
2021/06/25 05:18:38;;;;;;;7.80;2.12;;;;;;;21.71;65.45;98083.34;1784273;80;20877;-65
2021/06/25 05:21:05;;;;;;;7.45;1.65;;;;;;;21.78;65.37;98088.94;1755050;81;20861;-65
2021/06/25 05:23:32;;;;;;;8.23;1.98;;;;;;;21.83;65.21;98087.85;1719642;83;20991;-63
2021/06/25 05:25:58;;;;;;;8.18;1.95;;;;;;;21.88;65.13;98088.36;1755233;81;21122;-62
2021/06/25 05:28:25;;;;;;;6.87;2.10;;;;;;;21.94;64.93;98091.59;1749337;82;20888;-63
2021/06/25 05:30:52;;;;;;;10.78;2.50;;;;;;;22.01;64.53;98082.17;1749782;82;20905;-63
2021/06/25 05:33:19;;;;;;;5.95;1.85;;;;;;;22.05;64.38;98086.53;1749284;82;20908;-64
2021/06/25 05:35:47;;;;;;;11.65;3.12;;;;;;;22.11;64.18;98073.40;1749600;82;20936;-63
2021/06/25 05:38:14;;;;;;;6.67;2.00;;;;;;;22.18;63.92;98062.04;1749365;82;21120;-63
2021/06/25 05:40:42;;;;;;;7.50;2.12;;;;;;;22.26;63.79;98043.83;1749397;82;21474;-64
2021/06/25 05:43:11;;;;;;;7.30;1.77;;;;;;;22.34;64.08;98031.31;1748979;82;20963;-62
2021/06/25 05:45:38;;;;;;;7.08;1.85;;;;;;;22.42;63.40;98019.94;1749209;82;20909;-62
2021/06/25 05:48:07;;;;;;;5.70;1.80;;;;;;;22.48;63.04;98033.47;1741185;82;20935;-64
2021/06/25 05:50:35;;;;;;;8.33;2.05;;;;;;;22.53;62.69;98046.81;1730374;82;21428;-61
2021/06/25 05:53:02;;;;;;;7.78;1.80;;;;;;;22.54;62.70;98062.62;1749213;82;20999;-63
2021/06/25 05:55:30;;;;;;;7.45;1.67;;;;;;;22.54;62.22;98065.34;1719274;83;21003;-64
2021/06/25 05:57:57;;;;;;;5.37;1.87;;;;;;;22.54;62.56;98059.28;1746567;82;20928;-63
2021/06/25 06:00:24;;;;;;;8.05;1.92;;;;;;;22.58;62.81;98053.33;1716907;83;20944;-62
2021/06/25 06:02:50;;;;;;;5.95;1.72;;;;;;;22.67;62.64;98048.42;1715808;83;21120;-63
2021/06/25 06:05:18;;;;;;;8.05;1.85;;;;;;;22.77;62.43;98051.09;1685881;85;21012;-63
2021/06/25 06:07:45;;;;;;;6.65;2.02;;;;;;;22.83;61.85;98042.22;1684144;85;21078;-64
2021/06/25 06:10:15;;;;;;;7.30;2.05;;;;;;;22.86;61.61;98048.88;1715503;83;21190;-63
2021/06/25 06:12:42;;;;;;;5.75;1.98;;;;;;;22.88;61.92;98041.11;1686489;85;20986;-64
2021/06/25 06:15:12;;;;;;;3.77;1.62;;;;;;;22.95;61.33;98043.36;1714502;83;21100;-63
2021/06/25 06:17:41;;;;;;;5.75;1.72;;;;;;;23.02;61.40;98038.56;1715458;83;21489;-62
2021/06/25 06:20:13;;;;;;;6.75;2.10;;;;;;;23.14;61.74;98035.03;1714815;83;21515;-63
2021/06/25 06:33:41;;;;;;;7.92;1.70;;;;;;;23.76;60.56;98062.73;1714876;83;20387;-65
2021/06/25 06:35:54;;;;;;;4.75;1.70;;;;;;;23.90;60.32;98058.77;1709731;83;21543;-66
2021/06/25 06:38:24;;;;;;;4.03;1.65;;;;;;;24.02;60.39;98048.94;1714805;83;21080;-66
2021/06/25 06:40:50;;;;;;;7.85;2.20;;;;;;;24.15;60.25;98047.51;1714956;83;21265;-64
2021/06/25 06:43:16;;;;;;;6.03;1.72;;;;;;;24.30;59.87;98049.21;1715401;82;20956;-64
2021/06/25 06:45:44;;;;;;;7.53;1.62;;;;;;;24.41;58.63;98037.76;1741734;82;20935;-65
2021/06/25 06:48:11;;;;;;;6.85;1.62;;;;;;;24.56;58.27;98031.81;1692380;83;20956;-63
2021/06/25 06:50:38;;;;;;;7.00;1.70;;;;;;;24.56;58.27;98031.81;1753127;81;21152;-67
2021/06/25 06:53:05;;;;;;;6.92;2.00;;;;;;;24.65;57.25;98032.84;1721172;83;21863;-65
2021/06/25 06:55:33;;;;;;;7.67;1.90;;;;;;;24.71;56.74;98029.93;1754541;81;20896;-68
2021/06/25 06:58:01;;;;;;;9.00;2.08;;;;;;;24.78;56.58;98027.27;1721557;83;20893;-64
2021/06/25 07:00:27;;;;;;;7.85;1.82;;;;;;;24.86;56.19;98015.98;1739921;81;20948;-65
2021/06/25 07:02:54;;;;;;;11.73;2.15;;;;;;;24.86;56.19;98015.98;1741459;82;20861;-65
2021/06/25 07:05:21;;;;;;;9.25;2.00;;;;;;;24.93;56.68;98017.97;1691758;83;21124;-64
2021/06/25 07:07:48;;;;;;;7.08;1.95;;;;;;;24.97;56.74;98015.45;1711489;82;20924;-65
2021/06/25 07:10:15;;;;;;;9.40;2.17;;;;;;;25.02;57.18;98019.77;1718481;83;20962;-65
2021/06/25 07:12:42;;;;;;;8.13;2.12;;;;;;;24.99;56.00;98021.94;1724326;83;21057;-65
2021/06/25 07:15:11;;;;;;;8.18;1.75;;;;;;;24.95;56.47;98022.48;1734314;82;20955;-64
2021/06/25 07:17:39;;;;;;;5.62;1.80;;;;;;;25.00;56.92;98020.75;1723684;82;22310;-66
2021/06/25 07:20:08;;;;;;;6.22;1.85;;;;;;;25.05;56.92;98021.75;1712993;83;21210;-67
2021/06/25 07:22:35;;;;;;;10.63;2.22;;;;;;;25.05;56.63;98017.06;1727165;83;21097;-65
2021/06/25 07:25:03;;;;;;;5.78;1.98;;;;;;;25.09;56.37;98017.06;1722472;83;20913;-65
2021/06/25 07:27:30;;;;;;;5.90;1.70;;;;;;;25.14;56.55;98003.00;1698597;84;20984;-66
2021/06/25 07:29:58;;;;;;;6.00;1.77;;;;;;;25.20;56.35;98004.22;1722959;83;21121;-65
2021/06/25 07:32:27;;;;;;;11.15;2.05;;;;;;;25.23;56.45;97986.98;1721326;83;21022;-62
2021/06/25 07:34:54;;;;;;;8.90;2.02;;;;;;;25.23;56.45;97986.98;1715806;83;20964;-64
2021/06/25 07:37:20;;;;;;;17.87;2.67;;;;;;;25.21;56.71;97984.42;1730578;83;21529;-66
2021/06/25 07:39:48;;;;;;;9.95;2.50;;;;;;;25.21;56.71;97984.42;1746961;82;21415;-65
2021/06/25 07:42:15;;;;;;;6.58;2.00;;;;;;;25.27;56.82;97990.54;1730493;83;20998;-65
2021/06/25 07:44:42;;;;;;;17.75;2.67;;;;;;;25.30;56.50;97995.23;1718515;82;20975;-66
2021/06/25 07:47:10;;;;;;;9.65;2.77;;;;;;;25.33;56.19;98045.17;1730578;83;21303;-63
2021/06/25 07:49:36;;;;;;;5.15;2.10;;;;;;;25.33;56.19;98045.17;1717128;83;20956;-63
2021/06/25 07:52:04;;;;;;;8.25;1.92;;;;;;;25.34;55.88;98059.67;1730620;83;20999;-62
2021/06/25 07:54:31;;;;;;;4.58;1.75;;;;;;;25.33;55.83;98074.54;1747151;82;21521;-62
2021/06/25 07:56:58;;;;;;;5.70;1.85;;;;;;;25.34;55.54;98093.36;1730519;83;20920;-65
2021/06/25 07:59:25;;;;;;;8.75;1.70;;;;;;;25.37;55.21;98109.60;1730593;83;20864;-64
2021/06/25 08:01:52;;;;;;;7.40;1.95;;;;;;;25.39;55.39;98125.87;1747138;81;20904;-65
2021/06/25 08:04:19;;;;;;;6.42;2.17;;;;;;;25.44;55.27;98141.98;1752731;81;21414;-65
2021/06/25 08:06:46;;;;;;;7.47;1.77;;;;;;;25.41;54.65;98152.92;1729150;83;21122;-65
2021/06/25 08:09:14;;;;;;;3.42;1.42;;;;;;;25.41;54.39;98175.65;1761162;81;20963;-64
2021/06/25 08:11:42;;;;;;;5.37;1.87;;;;;;;25.37;54.59;98192.64;1731975;81;20944;-63
2021/06/25 08:14:10;;;;;;;5.45;1.65;;;;;;;25.36;55.52;98210.27;1675329;85;21024;-66
2021/06/25 08:16:37;;;;;;;5.25;1.67;;;;;;;25.37;55.06;98218.69;1736703;82;20866;-65
2021/06/25 08:19:06;;;;;;;5.78;2.02;;;;;;;25.33;55.19;98228.84;1675370;85;21130;-66
2021/06/25 08:21:33;;;;;;;4.85;1.67;;;;;;;25.30;55.38;98235.09;1750267;80;20972;-64
2021/06/25 08:24:00;;;;;;;7.92;2.08;;;;;;;25.30;55.54;98251.53;1775130;80;21075;-65
2021/06/25 08:26:28;;;;;;;11.55;1.90;;;;;;;25.29;56.09;98236.27;1774856;80;21061;-64
2021/06/25 08:28:57;;;;;;;9.18;2.22;;;;;;;25.35;55.43;98222.98;1774250;80;21129;-64
2021/06/25 08:31:24;;;;;;;7.28;2.98;;;;;;;25.46;55.42;98206.06;1772908;80;21092;-64
2021/06/25 08:33:50;;;;;;;10.38;3.35;;;;;;;25.57;55.59;98198.09;1763667;80;20936;-67
2021/06/25 08:36:17;;;;;;;14.58;3.60;;;;;;;25.70;54.55;98185.61;1749078;80;20909;-67
2021/06/25 08:38:45;;;;;;;14.63;3.95;;;;;;;25.84;54.93;98173.14;1763321;80;21027;-65
2021/06/25 08:41:12;;;;;;;13.15;2.40;;;;;;;26.04;54.93;98166.94;1769883;80;21055;-67
2021/06/25 08:43:39;;;;;;;6.85;2.30;;;;;;;26.25;53.40;98185.45;1772249;80;21509;-65
2021/06/25 08:46:06;;;;;;;11.28;2.50;;;;;;;26.27;52.62;98210.56;1757507;80;20917;-64
2021/06/25 08:48:33;;;;;;;7.03;1.85;;;;;;;26.23;53.37;98216.05;1770416;80;20979;-64
2021/06/25 08:51:00;;;;;;;7.45;2.62;;;;;;;26.20;53.59;98172.11;1767336;80;21536;-67
2021/06/25 08:53:27;;;;;;;6.17;2.60;;;;;;;26.18;53.83;98135.45;1754940;80;20972;-65
2021/06/25 08:55:54;;;;;;;8.15;2.42;;;;;;;26.17;53.58;98135.23;1762316;80;21126;-65
2021/06/25 08:58:27;;;;;;;6.72;1.90;;;;;;;26.10;53.74;98160.47;1755760;81;21063;-65
2021/06/25 09:00:54;;;;;;;5.78;2.35;;;;;;;25.94;54.11;98169.64;1765021;80;21075;-64
2021/06/25 09:03:25;;;;;;;8.65;2.58;;;;;;;25.75;54.66;98138.61;1765100;80;21051;-64
2021/06/25 09:05:53;;;;;;;7.00;2.60;;;;;;;25.59;55.89;98106.62;1752875;80;21071;-65
2021/06/25 09:08:26;;;;;;;17.92;6.03;;;;;;;25.49;55.99;98078.56;1751513;80;21099;-63
2021/06/25 09:10:56;;;;;;;12.40;3.83;;;;;;;25.39;56.12;98082.00;1764335;81;21505;-62
2021/06/25 09:13:36;;;;;;;6.53;2.90;;;;;;;25.24;57.22;98049.44;1764698;81;21035;-64
2021/06/25 09:16:33;;;;;;;6.45;2.33;;;;;;;25.06;57.75;98026.08;1763501;80;21151;-63
2021/06/25 09:19:07;;;;;;;6.35;2.17;;;;;;;24.84;58.93;97977.81;1759359;80;21451;-66
2021/06/25 09:21:41;;;;;;;5.62;2.20;;;;;;;24.61;58.84;97955.36;1759398;81;21108;-64
2021/06/25 09:24:24;;;;;;;12.70;2.60;;;;;;;24.46;59.13;97948.44;1764433;81;20946;-64
2021/06/25 09:26:59;;;;;;;6.55;2.40;;;;;;;24.35;59.57;97951.67;1765291;81;20941;-64
2021/06/25 09:29:29;;;;;;;8.10;2.40;;;;;;;24.25;60.40;97960.62;1742641;81;20854;-64
2021/06/25 09:32:01;;;;;;;7.20;2.50;;;;;;;24.25;60.93;97957.87;1765014;81;20846;-67
2021/06/25 09:34:42;;;;;;;10.20;2.40;;;;;;;24.37;61.23;97956.20;1768442;81;21431;-67
2021/06/25 09:37:13;;;;;;;6.12;2.27;;;;;;;24.54;61.58;97953.38;1761927;81;20893;-65
2021/06/25 09:39:42;;;;;;;8.48;2.30;;;;;;;24.73;60.90;97951.70;1767826;80;20982;-66
2021/06/25 09:42:22;;;;;;;9.08;2.45;;;;;;;24.90;59.82;97951.61;1775684;80;20984;-64
2021/06/25 09:45:03;;;;;;;9.23;3.00;;;;;;;25.06;59.54;97946.01;1775387;80;21430;-66
2021/06/25 09:47:40;;;;;;;9.93;2.45;;;;;;;25.24;59.13;97954.30;1774974;80;21901;-66
2021/06/25 09:50:12;;;;;;;9.23;2.50;;;;;;;25.39;59.53;97940.81;1770314;80;20886;-64
2021/06/25 09:52:59;;;;;;;9.00;2.40;;;;;;;25.53;59.48;97939.50;1766857;80;20941;-65
2021/06/25 09:55:56;;;;;;;9.78;2.67;;;;;;;25.66;58.99;97928.37;1774418;80;20973;-65
2021/06/25 10:03:56;;;;;;;8.88;3.25;;;;;;;26.05;58.28;97916.62;1774476;80;21026;-65
2021/06/25 10:06:28;;;;;;;8.25;3.00;;;;;;;26.20;57.75;97915.44;1770782;80;20972;-63
2021/06/25 10:08:55;;;;;;;12.15;2.85;;;;;;;26.35;57.96;97910.13;1769679;80;21074;-65
2021/06/25 10:11:25;;;;;;;8.95;2.85;;;;;;;26.44;57.60;97910.50;1769706;80;21349;-61
2021/06/25 10:13:57;;;;;;;8.83;2.75;;;;;;;26.52;57.62;97903.80;1763127;80;21130;-62
2021/06/25 10:16:25;;;;;;;8.63;2.67;;;;;;;26.64;57.82;97906.73;1766537;80;20998;-64
2021/06/25 10:18:56;;;;;;;9.03;2.98;;;;;;;26.76;57.57;97904.34;1768599;80;21084;-60
2021/06/25 10:21:31;;;;;;;9.25;2.87;;;;;;;26.86;57.34;97898.03;1766638;80;20933;-62
2021/06/25 10:24:02;;;;;;;10.43;3.00;;;;;;;26.98;57.15;97894.05;1728982;81;21474;-65
2021/06/25 10:26:37;;;;;;;10.95;3.40;;;;;;;27.08;57.15;97900.09;1756784;80;21099;-64
2021/06/25 10:29:04;;;;;;;9.80;3.40;;;;;;;27.18;56.83;97892.97;1765477;80;21441;-66
2021/06/25 10:31:32;;;;;;;10.58;3.40;;;;;;;27.23;56.32;97882.93;1729352;81;20971;-63
2021/06/25 10:33:59;;;;;;;10.70;3.00;;;;;;;27.26;56.27;97877.39;1746832;80;21067;-65
2021/06/25 10:36:30;;;;;;;12.18;2.85;;;;;;;27.31;56.57;97876.19;1764000;80;21583;-64
2021/06/25 10:39:11;;;;;;;13.53;3.25;;;;;;;27.36;56.84;97877.14;1767467;80;21070;-61
2021/06/25 10:41:58;;;;;;;9.33;3.15;;;;;;;27.39;56.89;97874.37;1751581;80;21107;-64
2021/06/25 10:44:39;;;;;;;13.98;3.60;;;;;;;27.43;56.86;97863.37;1754175;80;21022;-65
2021/06/25 10:47:34;;;;;;;13.72;3.52;;;;;;;27.50;56.61;97859.98;1754151;80;21055;-69
2021/06/25 10:50:13;;;;;;;14.30;3.87;;;;;;;27.55;56.63;97853.26;1741298;81;21081;-66
2021/06/25 10:52:40;;;;;;;10.13;3.58;;;;;;;27.63;56.70;97852.00;1752336;80;22439;-64
2021/06/25 10:55:16;;;;;;;10.45;3.45;;;;;;;27.74;56.99;97848.59;1763569;79;20999;-66
2021/06/25 10:57:55;;;;;;;16.17;3.58;;;;;;;27.85;57.22;97839.63;1768555;80;21117;-66
2021/06/25 11:00:42;;;;;;;12.25;3.62;;;;;;;27.97;57.46;97839.72;1763090;81;21106;-70
2021/06/25 11:03:38;;;;;;;11.48;3.85;;;;;;;28.08;57.21;97834.91;1733116;81;21068;-66
2021/06/25 11:06:05;;;;;;;;;;;;;;;28.15;57.09;97839.75;1733425;82;21085;-67
2021/06/25 11:08:32;;;;;;;9.80;3.60;;;;;;;28.27;57.09;97832.34;1733308;82;20211;-68
2021/06/25 11:11:02;;;;;;;16.10;3.98;;;;;;;28.36;57.25;97826.34;1734409;82;21045;-71
2021/06/25 11:13:29;;;;;;;14.50;3.92;;;;;;;28.48;57.54;97822.30;1742981;82;21075;-67
2021/06/25 11:16:04;;;;;;;13.40;3.60;;;;;;;28.63;57.33;97822.31;1742938;82;21023;-68
2021/06/25 11:18:30;;;;;;;12.53;3.83;;;;;;;28.80;57.42;97811.66;1742616;82;21165;-68
2021/06/25 11:21:07;;;;;;;15.18;3.75;;;;;;;28.98;57.00;97802.55;1744766;82;20995;-67
2021/06/25 11:23:43;;;;;;;16.73;3.90;;;;;;;29.12;56.20;97794.84;1744453;82;20925;-68
2021/06/25 11:26:24;;;;;;;14.05;4.53;;;;;;;29.21;55.80;97794.94;1744631;82;20984;-68
2021/06/25 11:28:55;;;;;;;18.30;4.10;;;;;;;29.33;55.04;97788.84;1744518;82;20952;-66
2021/06/25 11:31:28;;;;;;;11.85;3.75;;;;;;;29.40;54.51;97781.23;1744540;82;21080;-68
2021/06/25 11:34:05;;;;;;;14.85;3.87;;;;;;;29.45;53.56;97775.24;1749327;80;20935;-70
2021/06/25 11:36:51;;;;;;;16.35;4.00;;;;;;;29.49;52.86;97773.20;1744472;82;20940;-69
2021/06/25 11:39:32;;;;;;;26.02;3.98;;;;;;;29.64;53.34;97779.25;1763834;80;20933;-68
2021/06/25 11:42:09;;;;;;;14.65;3.60;;;;;;;29.90;52.15;97763.83;1766373;81;20985;-68
2021/06/25 11:44:42;;;;;;;19.92;4.22;;;;;;;30.18;51.54;97766.05;1766182;81;21200;-67
2021/06/25 11:47:19;;;;;;;15.28;3.77;;;;;;;30.52;50.42;97758.28;1766050;81;20943;-67
2021/06/25 11:52:29;;;;;;;19.50;4.03;;;;;;;31.05;49.64;97750.97;1750689;80;20956;-66
2021/06/25 11:55:06;;;;;;;13.18;3.58;;;;;;;31.17;48.88;97747.34;1743389;82;21054;-66
2021/06/25 11:57:37;;;;;;;22.37;3.72;;;;;;;31.27;49.21;97738.01;1758594;80;21105;-64
2021/06/25 12:00:21;;;;;;;19.17;4.28;;;;;;;31.49;49.09;97732.16;1767823;81;21491;-64
2021/06/25 12:02:59;;;;;;;25.37;4.30;;;;;;;31.73;47.19;97739.01;1771837;80;21068;-63
2021/06/25 12:05:32;;;;;;;15.10;4.00;;;;;;;31.90;46.37;97736.38;1754734;81;21526;-65
2021/06/25 12:08:15;;;;;;;18.37;3.58;;;;;;;31.98;46.02;97737.00;1744611;80;21489;-64
2021/06/25 12:10:59;;;;;;;31.62;4.72;;;;;;;32.00;45.88;97742.27;1765491;80;21008;-64
2021/06/25 12:13:26;;;;;;;11.63;3.60;;;;;;;32.05;46.10;97740.35;1764621;81;20889;-64
2021/06/25 12:15:54;;;;;;;16.45;3.80;;;;;;;32.12;46.00;97744.91;1764593;81;21459;-66
2021/06/25 12:18:24;;;;;;;18.27;4.28;;;;;;;32.24;45.64;97744.95;1773736;80;20936;-65
2021/06/25 12:21:06;;;;;;;14.63;3.25;;;;;;;32.38;45.35;97748.70;1776873;80;20944;-64
2021/06/25 12:23:34;;;;;;;18.42;4.35;;;;;;;32.49;45.31;97746.98;1768159;80;21125;-64
2021/06/25 12:26:19;;;;;;;20.70;3.87;;;;;;;32.63;45.10;97752.74;1763922;80;21063;-63
2021/06/25 12:28:42;;;;;;;14.30;3.90;;;;;;;32.74;44.85;97754.61;1762515;80;20914;-64
2021/06/25 12:31:22;;;;;;;21.73;4.03;;;;;;;32.74;45.08;97751.84;1774125;80;21498;-66
2021/06/25 12:33:50;;;;;;;17.02;4.05;;;;;;;32.73;44.42;97747.49;1752798;80;21023;-63
2021/06/25 12:36:17;;;;;;;15.83;3.75;;;;;;;32.65;43.85;97755.84;1765264;80;21121;-61
2021/06/25 12:38:47;;;;;;;20.30;4.00;;;;;;;32.67;43.72;97746.51;1744410;82;20889;-65
2021/06/25 12:41:14;;;;;;;20.10;3.92;;;;;;;32.65;43.19;97739.22;1744951;80;21078;-64
2021/06/25 12:43:47;;;;;;;18.62;4.00;;;;;;;32.56;43.55;97746.03;1775210;80;20873;-65
2021/06/25 12:46:16;;;;;;;19.02;3.80;;;;;;;32.35;43.96;97760.66;1774231;80;20924;-62
2021/06/25 12:49:04;;;;;;;18.50;4.87;;;;;;;32.10;44.59;97757.04;1772766;80;21076;-64
2021/06/25 12:51:38;;;;;;;15.90;3.65;;;;;;;31.90;45.31;97751.61;1789003;79;21023;-62
2021/06/25 12:54:06;;;;;;;14.87;3.75;;;;;;;31.73;45.49;97757.00;1784952;80;20889;-66
2021/06/25 12:56:38;;;;;;;18.20;4.45;;;;;;;31.59;46.29;97760.92;1788897;79;20923;-69
2021/06/25 12:59:21;;;;;;;19.37;4.65;;;;;;;31.56;46.60;97757.63;1793866;80;20939;-67
2021/06/25 13:01:51;;;;;;;19.42;4.17;;;;;;;31.57;46.74;97757.03;1796009;79;21031;-68
2021/06/25 13:04:30;;;;;;;17.55;3.95;;;;;;;31.65;46.93;97750.91;1778187;79;20964;-62
2021/06/25 13:07:04;;;;;;;16.37;4.20;;;;;;;31.77;47.10;97753.56;1770975;80;21095;-67
2021/06/25 13:09:44;;;;;;;17.73;3.87;;;;;;;31.95;46.61;97752.47;1787497;80;21479;-66
2021/06/25 13:12:20;;;;;;;18.32;3.92;;;;;;;31.96;46.69;97748.49;1782733;79;20980;-67
2021/06/25 13:14:55;;;;;;;20.15;3.58;;;;;;;31.90;46.93;97746.07;1786871;79;21087;-70
2021/06/25 13:17:26;;;;;;;17.00;3.72;;;;;;;31.74;47.17;97744.73;1775795;80;21468;-71
2021/06/25 13:20:09;;;;;;;20.77;4.08;;;;;;;31.53;47.67;97748.05;1790304;80;21381;-65
2021/06/25 13:23:01;;;;;;;13.50;3.77;;;;;;;31.32;48.42;97737.49;1779759;79;20976;-66
2021/06/25 13:25:43;;;;;;;19.87;4.30;;;;;;;31.15;49.28;97746.40;1761377;81;21011;-68
2021/06/25 13:28:09;;;;;;;15.55;4.40;;;;;;;30.97;49.46;97739.89;1768929;80;21112;-68
2021/06/25 13:30:39;;;;;;;13.72;4.33;;;;;;;30.76;50.06;97732.69;1793376;80;20968;-68
2021/06/25 13:33:13;;;;;;;13.62;4.60;;;;;;;30.60;50.89;97724.34;1794231;80;20956;-67
2021/06/25 13:35:47;;;;;;;17.10;4.22;;;;;;;30.48;51.70;97732.69;1787358;79;21302;-66
2021/06/25 13:38:24;;;;;;;18.30;4.45;;;;;;;30.34;52.40;97743.44;1793669;79;21094;-66
2021/06/25 13:41:02;;;;;;;21.60;4.83;;;;;;;30.24;52.85;97754.70;1792286;80;20913;-66
2021/06/25 13:43:34;;;;;;;27.90;4.75;;;;;;;30.12;53.37;97756.71;1794274;80;20928;-66
2021/06/25 13:46:18;;;;;;;17.40;5.10;;;;;;;30.03;54.01;97749.59;1793174;80;20908;-71
2021/06/25 13:49:07;;;;;;;17.62;4.80;;;;;;;29.95;54.37;97755.06;1792590;79;21301;-67
2021/06/25 13:51:36;;;;;;;15.53;4.72;;;;;;;29.88;54.64;97764.86;1801452;79;20971;-68
2021/06/25 13:54:20;;;;;;;23.95;4.97;;;;;;;29.77;55.24;97767.20;1802622;79;21188;-69
2021/06/25 13:56:57;;;;;;;25.00;4.83;;;;;;;29.73;55.55;97773.97;1804028;79;21373;-66
2021/06/25 13:59:39;;;;;;;15.83;5.05;;;;;;;29.69;55.82;97768.52;1804088;79;20941;-68
2021/06/25 14:02:06;;;;;;;17.07;4.55;;;;;;;29.66;56.01;97774.09;1803805;79;20884;-68
2021/06/25 14:04:33;;;;;;;19.30;5.05;;;;;;;29.63;56.36;97767.43;1803987;79;20877;-68
2021/06/25 14:07:00;;;;;;;15.80;4.72;;;;;;;29.63;56.58;97755.64;1803883;79;22245;-68
2021/06/25 14:40:28;;;;;;;25.97;5.10;;;;;;;29.21;59.87;97732.30;1871545;76;22685;-67
2021/06/25 14:42:55;;;;;;;20.15;5.20;;;;;;;29.10;60.05;97724.77;1827910;78;20880;-68
2021/06/25 14:45:22;;;;;;;20.80;5.35;;;;;;;29.07;60.22;97717.33;1828177;78;21769;-67
2021/06/25 14:47:49;;;;;;;22.17;7.08;;;;;;;29.05;60.36;97710.08;1827689;78;20841;-69
2021/06/25 14:50:15;;;;;;;22.30;7.33;;;;;;;29.01;60.53;97696.95;1827871;78;20865;-68
2021/06/25 14:52:42;;;;;;;25.05;8.20;;;;;;;29.02;60.96;97681.96;1827951;78;20920;-68
2021/06/25 14:55:10;;;;;;;23.65;6.47;;;;;;;29.01;61.20;97677.07;1827907;78;20876;-68
2021/06/25 14:57:37;;;;;;;20.43;7.65;;;;;;;29.00;61.26;97660.92;1827955;78;21090;-67
2021/06/25 15:00:09;;;;;;;24.32;7.60;;;;;;;28.98;61.36;97655.06;1827665;78;20865;-71
2021/06/25 15:02:36;;;;;;;32.65;10.03;;;;;;;28.96;61.47;97660.22;1827967;78;21431;-70
2021/06/25 15:05:04;;;;;;;26.48;9.85;;;;;;;28.92;61.77;97656.75;1827830;78;20920;-69
2021/06/25 15:07:31;;;;;;;24.80;8.88;;;;;;;28.87;61.94;97648.95;1827851;78;21506;-70
2021/06/25 15:09:59;;;;;;;21.55;7.60;;;;;;;28.83;62.09;97653.75;1828052;78;21355;-71
2021/06/25 15:12:26;;;;;;;23.05;6.60;;;;;;;28.78;62.30;97664.62;1828107;78;21356;-70
2021/06/25 15:14:54;;;;;;;16.27;5.40;;;;;;;28.75;62.38;97677.09;1827856;78;20856;-69
2021/06/25 15:17:21;;;;;;;18.77;5.53;;;;;;;28.70;62.55;97702.36;1828002;78;21410;-71
2021/06/25 15:19:48;;;;;;;18.95;5.00;;;;;;;28.65;62.31;97729.78;1827841;78;20899;-68
2021/06/25 15:22:15;;;;;;;16.00;5.62;;;;;;;28.62;62.26;97754.64;1828043;78;21754;-69
2021/06/25 15:24:42;;;;;;;18.00;5.12;;;;;;;28.60;61.81;97774.92;1828061;78;20931;-70
2021/06/25 15:27:09;;;;;;;23.40;5.78;;;;;;;28.59;61.86;97790.69;1827822;78;20868;-70
2021/06/25 15:29:36;;;;;;;21.50;5.12;;;;;;;28.59;61.97;97809.16;1828026;78;21443;-69
2021/06/25 15:32:03;;;;;;;23.22;5.72;;;;;;;28.55;62.16;97826.34;1827855;78;20876;-70
2021/06/25 15:34:30;;;;;;;17.62;4.83;;;;;;;28.50;62.34;97862.60;1828085;78;21509;-68
